createdAt,value
2022-10-28T00:00:06.182Z,100.00
2022-10-28T00:02:32.964Z,100.00
2022-10-28T00:04:59.559Z,100.00
2022-10-28T00:07:27.861Z,100.00
2022-10-28T00:09:54.468Z,100.00
2022-10-28T00:12:20.986Z,100.00
2022-10-28T00:14:47.535Z,100.00
2022-10-28T00:17:14.137Z,100.00
2022-10-28T00:19:40.822Z,100.00
2022-10-28T00:22:07.399Z,100.00
2022-10-28T00:24:33.986Z,100.00
2022-10-28T00:27:00.582Z,100.00
2022-10-28T00:29:27.256Z,100.00
2022-10-28T00:31:54.383Z,100.00
2022-10-28T00:34:24.023Z,100.00
2022-10-28T00:36:50.727Z,100.00
2022-10-28T00:39:18.788Z,100.00
2022-10-28T00:41:47.417Z,100.00
2022-10-28T00:44:32.914Z,100.00
2022-10-28T00:46:59.520Z,100.00
2022-10-28T00:49:32.190Z,100.00
2022-10-28T00:52:01.822Z,100.00
2022-10-28T00:54:29.844Z,100.00
2022-10-28T00:56:58.574Z,100.00
2022-10-28T00:59:27.491Z,100.00
2022-10-28T01:01:54.449Z,100.00
2022-10-28T01:04:21.967Z,100.00
2022-10-28T01:06:48.831Z,100.00
2022-10-28T01:09:15.525Z,100.00
2022-10-28T01:12:05.639Z,100.00
2022-10-28T01:14:38.446Z,100.00
2022-10-28T01:17:23.679Z,100.00
2022-10-28T01:20:08.727Z,100.00
2022-10-28T01:22:47.245Z,100.00
2022-10-28T01:25:19.990Z,100.00
2022-10-28T01:28:01.652Z,100.00
2022-10-28T01:30:32.705Z,100.00
2022-10-28T01:33:04.975Z,100.00
2022-10-28T01:35:44.214Z,100.00
2022-10-28T01:38:14.331Z,100.00
2022-10-28T01:40:43.929Z,100.00
2022-10-28T01:43:16.281Z,100.00
2022-10-28T01:45:42.871Z,100.00
2022-10-28T01:48:24.459Z,100.00
2022-10-28T01:50:58.183Z,100.00
2022-10-28T01:53:31.091Z,100.00
2022-10-28T01:56:00.282Z,100.00
2022-10-28T01:58:28.644Z,100.00
2022-10-28T02:00:56.048Z,100.00
2022-10-28T02:03:27.250Z,100.00
2022-10-28T02:05:55.818Z,100.00
2022-10-28T02:08:25.503Z,100.00
2022-10-28T02:10:52.114Z,100.00
2022-10-28T02:13:19.838Z,100.00
2022-10-28T02:15:55.214Z,100.00
2022-10-28T02:18:21.790Z,100.00
2022-10-28T02:20:54.066Z,100.00
2022-10-28T02:23:20.609Z,100.00
2022-10-28T02:25:52.975Z,100.00
2022-10-28T02:28:24.417Z,100.00
2022-10-28T02:30:58.189Z,100.00
2022-10-28T02:33:26.941Z,100.00
2022-10-28T02:36:00.721Z,100.00
2022-10-28T02:38:32.851Z,100.00
2022-10-28T02:41:02.302Z,100.00
2022-10-28T02:43:30.566Z,100.00
2022-10-28T02:45:59.808Z,100.00
2022-10-28T02:48:26.364Z,100.00
2022-10-28T02:51:00.768Z,100.00
2022-10-28T02:53:31.357Z,100.00
2022-10-28T02:56:00.734Z,100.00
2022-10-28T02:58:27.418Z,100.00
2022-10-28T03:00:54.018Z,100.00
2022-10-28T03:03:20.674Z,100.00
2022-10-28T03:05:47.220Z,100.00
2022-10-28T03:08:13.817Z,100.00
2022-10-28T03:10:40.369Z,100.00
2022-10-28T03:13:06.968Z,100.00
2022-10-28T03:15:33.504Z,100.00
2022-10-28T03:18:00.112Z,100.00
2022-10-28T03:20:26.671Z,100.00
2022-10-28T03:22:53.421Z,100.00
2022-10-28T03:25:20.153Z,100.00
2022-10-28T03:27:46.952Z,100.00
2022-10-28T03:30:14.700Z,100.00
2022-10-28T03:32:41.921Z,100.00
2022-10-28T03:35:08.508Z,100.00
2022-10-28T03:37:35.095Z,100.00
2022-10-28T03:40:02.858Z,100.00
2022-10-28T03:42:29.476Z,100.00
2022-10-28T03:44:56.125Z,100.00
2022-10-28T03:47:22.697Z,100.00
2022-10-28T03:49:49.418Z,100.00
2022-10-28T03:52:16.021Z,100.00
2022-10-28T03:54:42.593Z,100.00
2022-10-28T03:57:09.190Z,100.00
2022-10-28T03:59:35.767Z,100.00
2022-10-28T04:02:02.476Z,100.00
2022-10-28T04:04:30.803Z,100.00
2022-10-28T04:06:57.633Z,100.00
2022-10-28T04:09:24.235Z,100.00
2022-10-28T04:11:50.848Z,100.00
2022-10-28T04:14:17.428Z,100.00
2022-10-28T04:16:44.025Z,100.00
2022-10-28T04:19:10.604Z,100.00
2022-10-28T04:21:37.199Z,100.00
2022-10-28T04:24:03.935Z,100.00
2022-10-28T04:26:31.940Z,100.00
2022-10-28T04:28:58.644Z,100.00
2022-10-28T04:31:25.249Z,100.00
2022-10-28T04:33:51.824Z,100.00
2022-10-28T04:36:19.246Z,100.00
2022-10-28T04:38:45.817Z,100.00
2022-10-28T04:41:13.423Z,100.00
2022-10-28T04:43:40.195Z,100.00
2022-10-28T04:46:06.929Z,100.00
2022-10-28T04:48:34.047Z,100.00
2022-10-28T04:51:00.660Z,100.00
2022-10-28T04:53:27.262Z,100.00
2022-10-28T04:55:57.110Z,100.00
2022-10-28T04:58:23.891Z,100.00
2022-10-28T05:00:50.561Z,100.00
2022-10-28T05:03:17.115Z,100.00
2022-10-28T05:05:43.682Z,100.00
2022-10-28T05:08:10.276Z,100.00
2022-10-28T05:10:36.866Z,100.00
2022-10-28T05:13:03.402Z,100.00
2022-10-28T05:15:31.417Z,100.00
2022-10-28T05:17:58.073Z,100.00
2022-10-28T05:20:24.916Z,100.00
2022-10-28T05:22:53.794Z,100.00
2022-10-28T05:25:20.842Z,100.00
2022-10-28T05:27:47.483Z,100.00
2022-10-28T05:30:14.633Z,100.00
2022-10-28T05:32:41.329Z,100.00
2022-10-28T05:35:08.322Z,100.00
2022-10-28T05:37:34.958Z,100.00
2022-10-28T05:40:01.717Z,100.00
2022-10-28T05:42:28.354Z,100.00
2022-10-28T05:44:54.910Z,100.00
2022-10-28T05:47:21.628Z,100.00
2022-10-28T05:49:48.223Z,100.00
2022-10-28T05:52:14.845Z,100.00
2022-10-28T05:54:41.438Z,100.00
2022-10-28T05:57:08.072Z,100.00
2022-10-28T05:59:34.647Z,100.00
2022-10-28T06:02:01.254Z,100.00
2022-10-28T06:04:31.106Z,100.00
2022-10-28T06:06:57.777Z,100.00
2022-10-28T06:09:26.887Z,100.00
2022-10-28T06:11:52.080Z,100.00
2022-10-28T06:14:18.701Z,100.00
2022-10-28T06:16:45.358Z,100.00
2022-10-28T06:19:11.902Z,100.00
2022-10-28T06:21:38.538Z,100.00
2022-10-28T06:24:07.529Z,100.00
2022-10-28T06:26:36.327Z,100.00
2022-10-28T06:29:02.944Z,100.00
2022-10-28T06:31:29.542Z,100.00
2022-10-28T06:33:56.362Z,100.00
2022-10-28T06:36:23.079Z,100.00
2022-10-28T06:38:51.358Z,100.00
2022-10-28T06:41:17.964Z,100.00
2022-10-28T06:43:44.519Z,100.00
2022-10-28T06:46:11.073Z,100.00
2022-10-28T06:48:39.113Z,100.00
2022-10-28T06:51:05.886Z,100.00
2022-10-28T06:53:32.446Z,100.00
2022-10-28T06:55:59.175Z,100.00
2022-10-28T06:58:26.205Z,100.00
2022-10-28T07:00:53.718Z,100.00
2022-10-28T07:03:20.361Z,100.00
2022-10-28T07:05:47.528Z,100.00
2022-10-28T07:08:14.606Z,100.00
2022-10-28T07:10:41.581Z,100.00
2022-10-28T07:13:08.272Z,100.00
2022-10-28T07:15:34.876Z,100.00
2022-10-28T07:18:02.620Z,100.00
2022-10-28T07:20:32.029Z,100.00
2022-10-28T07:22:59.700Z,100.00
2022-10-28T07:25:27.449Z,100.00
2022-10-28T07:27:54.732Z,100.00
2022-10-28T07:30:21.494Z,100.00
2022-10-28T07:32:48.215Z,100.00
2022-10-28T07:35:14.912Z,100.00
2022-10-28T07:37:42.135Z,100.00
2022-10-28T07:40:09.018Z,100.00
2022-10-28T07:42:35.667Z,100.00
2022-10-28T07:45:02.547Z,100.00
2022-10-28T07:47:29.254Z,100.00
2022-10-28T07:49:55.944Z,100.00
2022-10-28T07:52:22.570Z,100.00
2022-10-28T07:54:50.519Z,100.00
2022-10-28T07:57:17.107Z,100.00
2022-10-28T07:59:43.912Z,100.00
2022-10-28T08:02:15.576Z,100.00
2022-10-28T08:04:42.394Z,100.00
2022-10-28T08:07:08.995Z,100.00
2022-10-28T08:09:35.568Z,100.00
2022-10-28T08:12:02.179Z,100.00
2022-10-28T08:14:29.257Z,100.00
2022-10-28T08:16:55.874Z,100.00
2022-10-28T08:19:22.521Z,100.00
2022-10-28T08:21:49.109Z,100.00
2022-10-28T08:24:15.750Z,100.00
2022-10-28T08:26:42.293Z,100.00
2022-10-28T08:29:12.277Z,100.00
2022-10-28T08:31:39.191Z,100.00
2022-10-28T08:34:06.553Z,100.00
2022-10-28T08:36:33.392Z,100.00
2022-10-28T08:39:01.601Z,100.00
2022-10-28T08:41:36.048Z,100.00
2022-10-28T08:44:18.073Z,100.00
2022-10-28T08:46:44.663Z,100.00
2022-10-28T08:49:13.860Z,100.00
2022-10-28T08:51:40.462Z,100.00
2022-10-28T08:54:13.087Z,100.00
2022-10-28T08:56:46.226Z,100.00
2022-10-28T08:59:21.725Z,97.69
2022-10-28T09:01:48.552Z,97.44
2022-10-28T09:04:30.421Z,96.53
2022-10-28T09:06:57.060Z,95.16
2022-10-28T09:09:23.837Z,96.28
2022-10-28T09:11:53.176Z,94.48
2022-10-28T09:14:25.718Z,64.81
2022-10-28T09:16:55.272Z,64.47
2022-10-28T09:19:21.847Z,64.33
2022-10-28T09:21:51.080Z,63.91
2022-10-28T09:24:19.916Z,62.49
2022-10-28T09:26:46.461Z,61.24
2022-10-28T09:29:26.443Z,61.33
2022-10-28T09:31:56.652Z,60.81
2022-10-28T09:34:32.390Z,60.45
2022-10-28T09:37:19.328Z,60.76
2022-10-28T09:40:09.217Z,60.49
2022-10-28T09:45:31.483Z,59.48
2022-10-28T09:48:10.421Z,59.34
2022-10-28T09:50:37.388Z,58.58
2022-10-28T09:53:10.309Z,58.68
2022-10-28T09:55:37.156Z,55.09
2022-10-28T09:58:04.447Z,55.23
2022-10-28T10:00:31.530Z,54.80
2022-10-28T10:02:58.705Z,55.14
2022-10-28T10:05:25.961Z,54.30
2022-10-28T10:07:55.186Z,52.80
2022-10-28T10:10:23.469Z,51.54
2022-10-28T10:12:52.434Z,50.02
2022-10-28T10:15:33.596Z,49.90
2022-10-28T10:18:02.092Z,50.13
2022-10-28T10:20:28.957Z,49.67
2022-10-28T10:22:55.981Z,48.47
2022-10-28T10:25:24.496Z,47.71
2022-10-28T10:28:01.801Z,48.02
2022-10-28T10:30:33.551Z,46.25
2022-10-28T10:33:01.455Z,45.29
2022-10-28T10:35:29.794Z,45.29
2022-10-28T10:37:57.970Z,43.78
2022-10-28T10:40:26.671Z,42.10
2022-10-28T10:43:09.952Z,41.77
2022-10-28T10:45:39.985Z,41.75
2022-10-28T10:48:12.814Z,41.68
2022-10-28T10:50:39.833Z,41.37
2022-10-28T10:53:06.477Z,41.04
2022-10-28T10:55:33.038Z,39.41
2022-10-28T10:58:00.656Z,38.78
2022-10-28T11:00:30.573Z,38.03
2022-10-28T11:02:57.668Z,38.08
2022-10-28T11:05:27.334Z,38.45
2022-10-28T11:08:05.072Z,37.96
2022-10-28T11:10:33.503Z,38.82
2022-10-28T11:13:02.876Z,37.23
2022-10-28T11:15:30.040Z,38.26
2022-10-28T11:18:16.980Z,37.02
2022-10-28T11:21:05.618Z,37.57
2022-10-28T11:23:36.339Z,38.40
2022-10-28T11:26:05.851Z,37.57
2022-10-28T11:28:35.713Z,37.38
2022-10-28T11:31:21.096Z,36.45
2022-10-28T11:33:56.628Z,34.80
2022-10-28T11:36:31.681Z,34.65
2022-10-28T11:38:58.274Z,34.48
2022-10-28T11:41:47.870Z,34.36
2022-10-28T11:44:34.722Z,34.98
2022-10-28T11:47:07.364Z,35.03
2022-10-28T11:49:43.280Z,35.23
2022-10-28T11:52:23.053Z,34.54
2022-10-28T11:55:01.638Z,34.25
2022-10-28T11:57:31.048Z,33.49
2022-10-28T12:00:14.933Z,33.04
2022-10-28T12:03:00.885Z,33.07
2022-10-28T12:05:43.843Z,32.68
2022-10-28T12:08:10.405Z,32.08
2022-10-28T12:10:48.216Z,31.73
2022-10-28T12:13:28.837Z,31.35
2022-10-28T12:16:00.017Z,31.12
2022-10-28T12:18:26.605Z,30.24
2022-10-28T12:20:53.171Z,30.47
2022-10-28T12:23:22.170Z,29.48
2022-10-28T12:25:51.695Z,28.60
2022-10-28T12:28:22.016Z,28.24
2022-10-28T12:30:50.151Z,27.06
2022-10-28T12:33:23.134Z,26.05
2022-10-28T12:36:13.019Z,25.47
2022-10-28T12:38:50.439Z,25.82
2022-10-28T12:41:27.505Z,25.17
2022-10-28T12:43:57.070Z,24.35
2022-10-28T12:46:29.794Z,23.33
2022-10-28T12:49:00.209Z,22.43
2022-10-28T12:51:29.552Z,22.13
2022-10-28T12:53:58.555Z,22.05
2022-10-28T12:56:31.144Z,22.41
2022-10-28T12:59:01.016Z,21.83
2022-10-28T13:01:29.134Z,21.20
2022-10-28T13:03:55.851Z,20.88
2022-10-28T13:06:28.464Z,20.52
2022-10-28T13:08:57.801Z,20.19
2022-10-28T13:11:35.107Z,20.25
2022-10-28T13:14:13.528Z,20.25
2022-10-28T13:16:42.851Z,20.03
2022-10-28T13:19:15.426Z,20.06
2022-10-28T13:21:41.958Z,20.29
2022-10-28T13:24:23.954Z,20.19
2022-10-28T13:26:51.154Z,19.87
2022-10-28T13:29:29.721Z,19.69
2022-10-28T13:31:56.605Z,19.91
2022-10-28T13:34:31.152Z,19.73
2022-10-28T13:37:03.441Z,19.75
2022-10-28T13:39:31.663Z,19.75
2022-10-28T13:42:13.705Z,19.54
2022-10-28T13:45:12.736Z,19.29
2022-10-28T13:47:39.461Z,19.35
2022-10-28T13:50:06.166Z,19.51
2022-10-28T13:52:37.130Z,19.71
2022-10-28T13:55:19.031Z,19.81
2022-10-28T13:57:47.366Z,19.43
2022-10-28T14:00:20.219Z,19.40
2022-10-28T14:02:47.012Z,19.16
2022-10-28T14:05:15.891Z,19.61
2022-10-28T14:07:57.329Z,19.66
2022-10-28T14:10:36.236Z,19.44
2022-10-28T14:15:48.464Z,19.94
2022-10-28T14:18:37.874Z,19.62
2022-10-28T14:21:02.303Z,20.27
2022-10-28T14:23:29.658Z,20.47
2022-10-28T14:25:59.864Z,20.49
2022-10-28T14:28:29.763Z,20.71
2022-10-28T14:31:11.854Z,20.63
2022-10-28T14:33:38.538Z,20.99
2022-10-28T14:36:14.450Z,20.91
2022-10-28T14:38:53.042Z,21.16
2022-10-28T14:41:25.477Z,21.40
2022-10-28T14:43:52.195Z,21.61
2022-10-28T14:46:39.296Z,21.75
2022-10-28T14:49:14.613Z,21.98
2022-10-28T14:51:42.547Z,22.16
2022-10-28T14:54:13.534Z,22.44
2022-10-28T14:56:40.983Z,22.97
2022-10-28T14:59:16.631Z,23.35
2022-10-28T15:01:55.937Z,24.21
2022-10-28T15:04:23.083Z,25.27
2022-10-28T15:06:51.054Z,26.28
2022-10-28T15:09:23.628Z,27.34
2022-10-28T15:11:56.131Z,27.86
2022-10-28T15:14:28.895Z,28.77
2022-10-28T15:16:55.531Z,29.72
2022-10-28T15:19:26.296Z,30.22
2022-10-28T15:22:00.117Z,30.66
2022-10-28T15:24:26.736Z,31.21
2022-10-28T15:26:54.563Z,31.73
2022-10-28T15:29:21.597Z,31.94
2022-10-28T15:32:07.598Z,32.67
2022-10-28T15:34:34.206Z,32.61
2022-10-28T15:37:00.857Z,33.23
2022-10-28T15:39:27.774Z,33.18
2022-10-28T15:41:54.939Z,33.52
2022-10-28T15:44:26.214Z,33.90
2022-10-28T15:46:52.989Z,34.11
2022-10-28T15:49:31.559Z,34.46
2022-10-28T15:52:18.347Z,34.36
2022-10-28T15:54:54.375Z,34.63
2022-10-28T15:57:21.961Z,34.74
2022-10-28T15:59:48.649Z,34.72
2022-10-28T16:02:38.610Z,34.91
2022-10-28T16:05:05.652Z,34.97
2022-10-28T16:07:32.226Z,34.97
2022-10-28T16:09:58.862Z,34.89
2022-10-28T16:12:26.618Z,35.16
2022-10-28T16:14:59.309Z,35.29
2022-10-28T16:17:30.789Z,35.55
2022-10-28T16:19:59.834Z,35.78
2022-10-28T16:22:28.191Z,36.24
2022-10-28T16:24:55.276Z,36.86
2022-10-28T16:27:23.217Z,37.82
2022-10-28T16:29:50.579Z,38.30
2022-10-28T16:32:18.667Z,38.95
2022-10-28T16:34:45.273Z,39.25
2022-10-28T16:37:23.121Z,39.67
2022-10-28T16:39:50.064Z,40.13
2022-10-28T16:42:17.553Z,40.63
2022-10-28T16:44:44.305Z,40.70
2022-10-28T16:47:12.876Z,41.11
2022-10-28T16:49:42.511Z,41.50
2022-10-28T16:52:15.554Z,41.68
2022-10-28T16:54:42.354Z,42.32
2022-10-28T16:57:08.990Z,42.26
2022-10-28T16:59:35.605Z,42.29
2022-10-28T17:02:02.290Z,42.84
2022-10-28T17:04:29.816Z,43.02
2022-10-28T17:06:56.510Z,43.28
2022-10-28T17:09:23.218Z,43.57
2022-10-28T17:11:49.819Z,43.99
2022-10-28T17:14:16.459Z,44.04
2022-10-28T17:16:43.520Z,44.27
2022-10-28T17:19:10.289Z,44.40
2022-10-28T17:21:36.910Z,44.50
2022-10-28T17:24:03.965Z,44.89
2022-10-28T17:26:30.721Z,45.57
2022-10-28T17:28:57.461Z,44.66
2022-10-28T17:31:25.378Z,44.40
2022-10-28T17:33:55.565Z,44.60
2022-10-28T17:36:23.295Z,45.07
2022-10-28T17:38:49.957Z,45.18
2022-10-28T17:41:16.606Z,46.34
2022-10-28T17:43:43.234Z,46.77
2022-10-28T17:46:09.821Z,47.50
2022-10-28T17:48:36.550Z,48.49
2022-10-28T17:51:03.209Z,48.56
2022-10-28T17:53:29.770Z,48.37
2022-10-28T17:55:57.407Z,48.19
2022-10-28T17:58:24.509Z,48.70
2022-10-28T18:01:00.803Z,48.25
2022-10-28T18:03:27.989Z,49.21
2022-10-28T18:05:55.022Z,49.84
2022-10-28T18:08:21.960Z,49.28
2022-10-28T18:10:55.830Z,49.71
2022-10-28T18:13:32.993Z,50.28
2022-10-28T18:16:13.421Z,50.78
2022-10-28T18:18:42.534Z,50.45
2022-10-28T18:21:10.516Z,51.19
2022-10-28T18:23:37.060Z,51.51
2022-10-28T18:26:08.253Z,52.25
2022-10-28T18:28:35.723Z,52.71
2022-10-28T18:31:02.775Z,52.99
2022-10-28T18:33:30.140Z,53.55
2022-10-28T18:36:00.332Z,53.72
2022-10-28T18:38:27.305Z,53.47
2022-10-28T18:40:53.912Z,54.25
2022-10-28T18:43:21.745Z,54.27
2022-10-28T18:45:48.798Z,54.21
2022-10-28T18:48:15.386Z,55.51
2022-10-28T18:50:44.545Z,55.76
2022-10-28T18:53:15.037Z,57.34
2022-10-28T18:55:41.618Z,57.34
2022-10-28T18:58:11.685Z,57.33
2022-10-28T19:00:40.129Z,56.72
2022-10-28T19:03:06.808Z,57.41
2022-10-28T19:05:33.464Z,57.47
2022-10-28T19:08:00.268Z,57.09
2022-10-28T19:10:26.888Z,56.94
2022-10-28T19:12:53.463Z,56.95
2022-10-28T19:15:20.064Z,57.17
2022-10-28T19:17:46.645Z,57.78
2022-10-28T19:20:14.498Z,58.43
2022-10-28T19:22:41.164Z,59.46
2022-10-28T19:25:07.861Z,59.14
2022-10-28T19:27:34.484Z,59.67
2022-10-28T19:30:05.510Z,59.54
2022-10-28T19:32:34.526Z,59.62
2022-10-28T19:35:01.073Z,59.54
2022-10-28T19:37:27.721Z,59.81
2022-10-28T19:39:56.528Z,60.66
2022-10-28T19:42:23.404Z,61.57
2022-10-28T19:44:49.986Z,61.69
2022-10-28T19:47:16.616Z,62.16
2022-10-28T19:49:44.497Z,61.95
2022-10-28T19:52:11.289Z,62.25
2022-10-28T19:54:37.929Z,63.20
2022-10-28T19:57:04.862Z,64.27
2022-10-28T19:59:31.607Z,65.20
2022-10-28T20:01:58.332Z,66.06
2022-10-28T20:04:25.196Z,67.92
2022-10-28T20:06:51.804Z,68.54
2022-10-28T20:09:18.403Z,69.50
2022-10-28T20:11:45.236Z,70.62
2022-10-28T20:14:12.786Z,72.19
2022-10-28T20:16:41.944Z,73.53
2022-10-28T20:19:09.639Z,74.36
2022-10-28T20:21:37.343Z,74.79
2022-10-28T20:24:05.287Z,75.13
2022-10-28T20:26:32.874Z,75.33
2022-10-28T20:29:01.935Z,76.35
2022-10-28T20:31:29.791Z,76.29
2022-10-28T20:33:58.693Z,78.35
2022-10-28T20:36:26.766Z,79.50
2022-10-28T20:38:57.552Z,79.02
2022-10-28T20:41:25.058Z,79.54
2022-10-28T20:43:53.441Z,82.17
2022-10-28T20:46:20.889Z,81.17
2022-10-28T20:48:48.196Z,80.97
2022-10-28T20:51:15.191Z,80.64
2022-10-28T20:53:42.161Z,80.94
2022-10-28T20:56:14.758Z,81.21
2022-10-28T20:58:41.309Z,86.34
2022-10-28T21:01:15.920Z,88.24
2022-10-28T21:03:43.589Z,86.25
2022-10-28T21:06:10.501Z,85.00
2022-10-28T21:08:37.377Z,84.20
2022-10-28T21:11:04.508Z,84.93
2022-10-28T21:13:31.235Z,87.02
2022-10-28T21:15:58.170Z,86.32
2022-10-28T21:18:25.295Z,83.08
2022-10-28T21:20:58.802Z,80.01
2022-10-28T21:23:26.465Z,82.72
2022-10-28T21:25:57.137Z,83.75
2022-10-28T21:28:24.040Z,85.12
2022-10-28T21:30:50.677Z,86.54
2022-10-28T21:33:18.997Z,87.67
2022-10-28T21:35:54.099Z,89.52
2022-10-28T21:38:20.806Z,91.79
2022-10-28T21:40:47.478Z,93.28
2022-10-28T21:43:14.112Z,96.59
2022-10-28T21:45:40.630Z,98.99
2022-10-28T21:48:07.262Z,98.73
2022-10-28T21:50:33.876Z,98.02
2022-10-28T21:53:04.226Z,96.74
2022-10-28T21:55:46.148Z,97.60
2022-10-28T21:58:13.483Z,97.99
2022-10-28T22:00:40.215Z,98.83
2022-10-28T22:03:07.106Z,100.00
2022-10-28T22:05:33.741Z,100.00
2022-10-28T22:08:05.000Z,100.00
2022-10-28T22:10:32.091Z,100.00
2022-10-28T22:12:59.957Z,100.00
2022-10-28T22:15:27.906Z,99.84
2022-10-28T22:17:54.826Z,100.00
2022-10-28T22:20:22.159Z,100.00
2022-10-28T22:22:48.820Z,100.00
2022-10-28T22:25:15.479Z,100.00
2022-10-28T22:27:42.210Z,100.00
2022-10-28T22:30:09.126Z,100.00
2022-10-28T22:32:35.727Z,100.00
2022-10-28T22:35:02.544Z,100.00
2022-10-28T22:37:29.142Z,100.00
2022-10-28T22:39:55.733Z,100.00
2022-10-28T22:42:24.107Z,100.00
2022-10-28T22:44:50.677Z,100.00
2022-10-28T22:47:17.308Z,100.00
2022-10-28T22:49:43.923Z,100.00
2022-10-28T22:52:10.564Z,100.00
2022-10-28T22:54:37.180Z,100.00
2022-10-28T22:57:03.738Z,100.00
2022-10-28T22:59:30.344Z,100.00
2022-10-28T23:01:58.087Z,100.00
2022-10-28T23:04:24.822Z,100.00
2022-10-28T23:06:51.357Z,100.00
2022-10-28T23:09:18.831Z,100.00
2022-10-28T23:11:46.869Z,100.00
2022-10-28T23:14:13.552Z,100.00
2022-10-28T23:16:40.095Z,100.00
2022-10-28T23:19:06.635Z,100.00
2022-10-28T23:21:33.320Z,100.00
2022-10-28T23:24:00.593Z,100.00
2022-10-28T23:26:28.170Z,100.00
2022-10-28T23:28:58.682Z,100.00
2022-10-28T23:31:25.750Z,100.00
2022-10-28T23:33:53.081Z,100.00
2022-10-28T23:36:19.658Z,100.00
2022-10-28T23:38:47.264Z,100.00
2022-10-28T23:41:16.296Z,100.00
2022-10-28T23:43:44.634Z,100.00
2022-10-28T23:46:11.300Z,100.00
2022-10-28T23:48:37.976Z,100.00
2022-10-28T23:51:04.789Z,100.00
2022-10-28T23:53:31.666Z,100.00
2022-10-28T23:55:58.709Z,100.00
2022-10-28T23:58:26.593Z,100.00
